Terminal Aerodrome Forecast
Issued by NWS Sioux Falls, SD

Home | Current Version | Previous Version | Graphics & Text | Print | Product List | Glossary Off
Versions: 1 2 3 4 5 6 7 8 9 10 11 12 13 14 15 16 17 18 19

000
FTUS43 KFSD 262333
TAFFSD
TAF
KFSD 262333Z 2700/2724 31007KT P6SM SCT250
     FM270400 VRB03KT P6SM SCT100
     FM271000 VRB03KT 4SM BR SCT010
     FM271500 14006KT P6SM SCT100
     FM271900 15010KT P6SM SCT100=

USA.gov is the U.S. government's official web portal to all federal, state and local government web resources and services.